Terminal Aerodrome Forecast
Issued by NWS

Current Version | Previous Version | Text Only | Print | Product List | Glossary On
Versions: 1 2 3 4 5 6 7 8 9 10 11 12 13 14 15 16 17 18
000
FTUS43 KPAH 010500
TAFCGI
TAF
KCGI 010520Z 0106/0206 VRB03KT P6SM SKC
     FM011600 17006KT P6SM FEW050
     FM020100 16004KT P6SM SCT100 BKN250=

USA.gov is the U.S. government's official web portal to all federal, state and local government web resources and services.